sensor_id;sensor_type;location;lat;lon;timestamp;P1;durP1;ratioP1;P2;durP2;ratioP2
59006;SDS011;44792;52.760;6.726;2022-12-29T00:01:25;5.25;;;4.22;;
59006;SDS011;44792;52.760;6.726;2022-12-29T00:03:51;8.23;;;3.95;;
59006;SDS011;44792;52.760;6.726;2022-12-29T00:06:17;8.32;;;4.97;;
59006;SDS011;44792;52.760;6.726;2022-12-29T00:08:42;5.25;;;4.22;;
59006;SDS011;44792;52.760;6.726;2022-12-29T00:11:12;4.85;;;4.30;;
59006;SDS011;44792;52.760;6.726;2022-12-29T00:13:40;4.87;;;3.97;;
59006;SDS011;44792;52.760;6.726;2022-12-29T00:16:24;4.40;;;3.65;;
59006;SDS011;44792;52.760;6.726;2022-12-29T00:18:50;4.63;;;3.72;;
59006;SDS011;44792;52.760;6.726;2022-12-29T00:21:17;8.27;;;4.80;;
59006;SDS011;44792;52.760;6.726;2022-12-29T00:24:04;4.38;;;3.95;;
59006;SDS011;44792;52.760;6.726;2022-12-29T00:26:50;4.30;;;3.90;;
59006;SDS011;44792;52.760;6.726;2022-12-29T00:29:40;6.57;;;4.38;;
59006;SDS011;44792;52.760;6.726;2022-12-29T00:32:24;5.50;;;4.55;;
59006;SDS011;44792;52.760;6.726;2022-12-29T00:35:10;4.43;;;4.03;;
59006;SDS011;44792;52.760;6.726;2022-12-29T00:37:41;4.93;;;3.55;;
59006;SDS011;44792;52.760;6.726;2022-12-29T00:40:29;8.15;;;4.40;;
59006;SDS011;44792;52.760;6.726;2022-12-29T00:43:13;5.07;;;3.95;;
59006;SDS011;44792;52.760;6.726;2022-12-29T00:45:58;5.28;;;3.80;;
59006;SDS011;44792;52.760;6.726;2022-12-29T00:48:23;3.90;;;3.50;;
59006;SDS011;44792;52.760;6.726;2022-12-29T00:51:08;4.60;;;3.58;;
59006;SDS011;44792;52.760;6.726;2022-12-29T00:53:34;3.67;;;3.25;;
59006;SDS011;44792;52.760;6.726;2022-12-29T00:56:00;4.95;;;3.75;;
59006;SDS011;44792;52.760;6.726;2022-12-29T00:58:28;5.50;;;3.80;;
59006;SDS011;44792;52.760;6.726;2022-12-29T01:01:07;5.22;;;3.97;;
59006;SDS011;44792;52.760;6.726;2022-12-29T01:03:34;6.53;;;3.67;;
59006;SDS011;44792;52.760;6.726;2022-12-29T01:06:01;4.38;;;3.70;;
59006;SDS011;44792;52.760;6.726;2022-12-29T01:08:28;5.68;;;3.83;;
59006;SDS011;44792;52.760;6.726;2022-12-29T01:11:01;6.20;;;3.30;;
59006;SDS011;44792;52.760;6.726;2022-12-29T01:13:31;4.88;;;2.97;;
59006;SDS011;44792;52.760;6.726;2022-12-29T01:15:57;4.95;;;3.65;;
59006;SDS011;44792;52.760;6.726;2022-12-29T01:18:23;3.90;;;3.08;;
59006;SDS011;44792;52.760;6.726;2022-12-29T01:20:50;4.25;;;3.25;;
59006;SDS011;44792;52.760;6.726;2022-12-29T01:23:16;4.40;;;3.10;;
59006;SDS011;44792;52.760;6.726;2022-12-29T01:25:42;3.78;;;3.45;;
59006;SDS011;44792;52.760;6.726;2022-12-29T01:28:07;4.30;;;3.90;;
59006;SDS011;44792;52.760;6.726;2022-12-29T01:30:33;4.85;;;3.17;;
59006;SDS011;44792;52.760;6.726;2022-12-29T01:33:00;4.57;;;3.40;;
59006;SDS011;44792;52.760;6.726;2022-12-29T01:35:25;3.55;;;2.90;;
59006;SDS011;44792;52.760;6.726;2022-12-29T01:37:51;4.10;;;3.40;;
59006;SDS011;44792;52.760;6.726;2022-12-29T01:40:17;4.28;;;3.42;;
59006;SDS011;44792;52.760;6.726;2022-12-29T01:42:42;3.30;;;2.97;;
59006;SDS011;44792;52.760;6.726;2022-12-29T01:45:09;3.72;;;3.10;;
59006;SDS011;44792;52.760;6.726;2022-12-29T01:47:45;4.57;;;3.10;;
59006;SDS011;44792;52.760;6.726;2022-12-29T01:50:23;3.28;;;2.97;;
59006;SDS011;44792;52.760;6.726;2022-12-29T01:53:08;4.10;;;3.03;;
59006;SDS011;44792;52.760;6.726;2022-12-29T01:56:04;3.85;;;2.97;;
59006;SDS011;44792;52.760;6.726;2022-12-29T01:58:36;3.60;;;3.15;;
59006;SDS011;44792;52.760;6.726;2022-12-29T02:01:05;4.22;;;2.75;;
59006;SDS011;44792;52.760;6.726;2022-12-29T02:03:31;3.83;;;2.97;;
59006;SDS011;44792;52.760;6.726;2022-12-29T02:06:03;3.80;;;2.83;;
59006;SDS011;44792;52.760;6.726;2022-12-29T02:08:31;3.10;;;2.78;;
59006;SDS011;44792;52.760;6.726;2022-12-29T02:10:58;4.35;;;2.65;;
59006;SDS011;44792;52.760;6.726;2022-12-29T02:13:25;2.88;;;2.30;;
59006;SDS011;44792;52.760;6.726;2022-12-29T02:18:51;4.55;;;2.35;;
59006;SDS011;44792;52.760;6.726;2022-12-29T02:21:34;2.80;;;2.60;;
59006;SDS011;44792;52.760;6.726;2022-12-29T02:30:16;3.40;;;2.47;;
59006;SDS011;44792;52.760;6.726;2022-12-29T02:33:18;5.18;;;2.63;;
59006;SDS011;44792;52.760;6.726;2022-12-29T02:35:36;3.00;;;2.28;;
59006;SDS011;44792;52.760;6.726;2022-12-29T02:38:28;3.38;;;2.42;;
59006;SDS011;44792;52.760;6.726;2022-12-29T02:48:59;5.07;;;2.63;;
59006;SDS011;44792;52.760;6.726;2022-12-29T02:51:35;5.13;;;2.08;;
59006;SDS011;44792;52.760;6.726;2022-12-29T02:54:18;3.53;;;2.55;;
59006;SDS011;44792;52.760;6.726;2022-12-29T02:57:03;2.78;;;2.20;;
59006;SDS011;44792;52.760;6.726;2022-12-29T02:59:30;2.40;;;2.20;;
59006;SDS011;44792;52.760;6.726;2022-12-29T03:02:03;2.85;;;2.15;;
59006;SDS011;44792;52.760;6.726;2022-12-29T03:10:30;3.38;;;2.08;;
59006;SDS011;44792;52.760;6.726;2022-12-29T03:19:01;3.83;;;2.30;;
59006;SDS011;44792;52.760;6.726;2022-12-29T03:21:39;3.33;;;2.25;;
59006;SDS011;44792;52.760;6.726;2022-12-29T03:24:32;2.55;;;1.95;;
59006;SDS011;44792;52.760;6.726;2022-12-29T03:27:02;2.35;;;2.03;;
59006;SDS011;44792;52.760;6.726;2022-12-29T03:29:32;3.33;;;2.33;;
59006;SDS011;44792;52.760;6.726;2022-12-29T03:32:01;2.40;;;2.08;;
59006;SDS011;44792;52.760;6.726;2022-12-29T03:34:29;1.98;;;1.85;;
59006;SDS011;44792;52.760;6.726;2022-12-29T03:36:58;3.70;;;2.50;;
59006;SDS011;44792;52.760;6.726;2022-12-29T03:39:27;3.30;;;2.00;;
59006;SDS011;44792;52.760;6.726;2022-12-29T03:42:00;3.47;;;1.90;;
59006;SDS011;44792;52.760;6.726;2022-12-29T03:44:40;1.90;;;1.80;;
59006;SDS011;44792;52.760;6.726;2022-12-29T03:47:09;2.10;;;1.90;;
59006;SDS011;44792;52.760;6.726;2022-12-29T03:49:36;3.40;;;1.70;;
59006;SDS011;44792;52.760;6.726;2022-12-29T03:52:02;3.40;;;1.95;;
59006;SDS011;44792;52.760;6.726;2022-12-29T03:54:28;1.90;;;1.80;;
59006;SDS011;44792;52.760;6.726;2022-12-29T03:56:54;4.85;;;1.90;;
59006;SDS011;44792;52.760;6.726;2022-12-29T03:59:19;3.00;;;1.70;;
59006;SDS011;44792;52.760;6.726;2022-12-29T04:01:45;5.05;;;1.90;;
59006;SDS011;44792;52.760;6.726;2022-12-29T04:04:11;3.40;;;2.00;;
59006;SDS011;44792;52.760;6.726;2022-12-29T04:06:37;3.03;;;2.38;;
59006;SDS011;44792;52.760;6.726;2022-12-29T04:09:02;3.25;;;2.08;;
59006;SDS011;44792;52.760;6.726;2022-12-29T04:11:28;3.88;;;2.13;;
59006;SDS011;44792;52.760;6.726;2022-12-29T04:13:54;3.38;;;1.55;;
59006;SDS011;44792;52.760;6.726;2022-12-29T04:16:19;1.83;;;1.67;;
59006;SDS011;44792;52.760;6.726;2022-12-29T04:18:45;1.67;;;1.52;;
59006;SDS011;44792;52.760;6.726;2022-12-29T04:21:10;2.75;;;1.83;;
59006;SDS011;44792;52.760;6.726;2022-12-29T04:23:36;2.85;;;1.42;;
59006;SDS011;44792;52.760;6.726;2022-12-29T04:26:04;6.95;;;1.75;;
59006;SDS011;44792;52.760;6.726;2022-12-29T04:28:34;1.40;;;1.20;;
59006;SDS011;44792;52.760;6.726;2022-12-29T04:31:00;2.80;;;1.92;;
59006;SDS011;44792;52.760;6.726;2022-12-29T04:33:26;2.20;;;1.20;;
59006;SDS011;44792;52.760;6.726;2022-12-29T04:35:52;3.42;;;1.67;;
59006;SDS011;44792;52.760;6.726;2022-12-29T04:38:19;2.40;;;1.10;;
59006;SDS011;44792;52.760;6.726;2022-12-29T04:40:45;3.25;;;1.30;;
59006;SDS011;44792;52.760;6.726;2022-12-29T04:43:11;1.55;;;1.35;;
59006;SDS011;44792;52.760;6.726;2022-12-29T04:45:37;1.67;;;1.55;;
59006;SDS011;44792;52.760;6.726;2022-12-29T04:48:03;3.80;;;1.50;;
59006;SDS011;44792;52.760;6.726;2022-12-29T04:50:29;2.00;;;1.33;;
59006;SDS011;44792;52.760;6.726;2022-12-29T04:52:55;2.60;;;1.45;;
59006;SDS011;44792;52.760;6.726;2022-12-29T04:55:20;4.15;;;1.60;;
59006;SDS011;44792;52.760;6.726;2022-12-29T04:57:46;4.38;;;1.65;;
59006;SDS011;44792;52.760;6.726;2022-12-29T05:00:11;2.28;;;1.90;;
59006;SDS011;44792;52.760;6.726;2022-12-29T05:02:38;4.10;;;1.73;;
59006;SDS011;44792;52.760;6.726;2022-12-29T05:05:04;4.78;;;1.30;;
59006;SDS011;44792;52.760;6.726;2022-12-29T05:07:30;3.10;;;1.73;;
59006;SDS011;44792;52.760;6.726;2022-12-29T05:09:58;5.13;;;1.63;;
59006;SDS011;44792;52.760;6.726;2022-12-29T05:12:24;3.95;;;1.70;;
59006;SDS011;44792;52.760;6.726;2022-12-29T05:14:49;1.70;;;1.35;;
59006;SDS011;44792;52.760;6.726;2022-12-29T05:17:15;3.58;;;1.67;;
59006;SDS011;44792;52.760;6.726;2022-12-29T05:19:40;3.15;;;1.88;;
59006;SDS011;44792;52.760;6.726;2022-12-29T05:22:06;1.90;;;1.80;;
59006;SDS011;44792;52.760;6.726;2022-12-29T05:24:31;4.65;;;2.20;;
59006;SDS011;44792;52.760;6.726;2022-12-29T05:26:57;2.78;;;1.60;;
59006;SDS011;44792;52.760;6.726;2022-12-29T05:29:22;4.40;;;1.70;;
59006;SDS011;44792;52.760;6.726;2022-12-29T05:31:48;1.58;;;1.48;;
59006;SDS011;44792;52.760;6.726;2022-12-29T05:34:13;5.65;;;2.03;;
59006;SDS011;44792;52.760;6.726;2022-12-29T05:36:39;1.58;;;1.38;;
59006;SDS011;44792;52.760;6.726;2022-12-29T05:39:05;2.50;;;1.55;;
59006;SDS011;44792;52.760;6.726;2022-12-29T05:41:32;2.88;;;1.30;;
59006;SDS011;44792;52.760;6.726;2022-12-29T05:43:58;2.83;;;1.88;;
59006;SDS011;44792;52.760;6.726;2022-12-29T05:46:24;3.80;;;1.50;;
59006;SDS011;44792;52.760;6.726;2022-12-29T05:48:49;6.10;;;1.95;;
59006;SDS011;44792;52.760;6.726;2022-12-29T05:51:15;1.75;;;1.55;;
59006;SDS011;44792;52.760;6.726;2022-12-29T05:53:40;1.95;;;1.60;;
59006;SDS011;44792;52.760;6.726;2022-12-29T05:56:06;3.53;;;1.48;;
59006;SDS011;44792;52.760;6.726;2022-12-29T05:58:31;3.10;;;1.50;;
59006;SDS011;44792;52.760;6.726;2022-12-29T06:00:57;2.35;;;1.10;;
59006;SDS011;44792;52.760;6.726;2022-12-29T06:03:23;4.50;;;1.58;;
59006;SDS011;44792;52.760;6.726;2022-12-29T06:05:49;3.00;;;1.90;;
59006;SDS011;44792;52.760;6.726;2022-12-29T06:08:14;7.88;;;1.85;;
59006;SDS011;44792;52.760;6.726;2022-12-29T06:10:40;3.13;;;1.33;;
59006;SDS011;44792;52.760;6.726;2022-12-29T06:13:05;2.90;;;1.40;;
59006;SDS011;44792;52.760;6.726;2022-12-29T06:15:32;1.42;;;1.33;;
59006;SDS011;44792;52.760;6.726;2022-12-29T06:17:58;3.78;;;1.73;;
59006;SDS011;44792;52.760;6.726;2022-12-29T06:20:23;4.63;;;1.70;;
59006;SDS011;44792;52.760;6.726;2022-12-29T06:22:49;3.50;;;1.70;;
59006;SDS011;44792;52.760;6.726;2022-12-29T06:25:14;4.93;;;1.60;;
59006;SDS011;44792;52.760;6.726;2022-12-29T06:27:41;4.65;;;1.83;;
59006;SDS011;44792;52.760;6.726;2022-12-29T06:30:07;6.38;;;1.52;;
59006;SDS011;44792;52.760;6.726;2022-12-29T06:32:33;6.82;;;1.40;;
59006;SDS011;44792;52.760;6.726;2022-12-29T06:34:59;6.43;;;1.40;;
59006;SDS011;44792;52.760;6.726;2022-12-29T06:37:25;3.20;;;1.88;;
59006;SDS011;44792;52.760;6.726;2022-12-29T06:39:51;2.97;;;1.45;;
59006;SDS011;44792;52.760;6.726;2022-12-29T06:42:16;3.50;;;1.83;;
59006;SDS011;44792;52.760;6.726;2022-12-29T06:44:42;4.40;;;1.65;;
59006;SDS011;44792;52.760;6.726;2022-12-29T06:47:08;5.05;;;1.92;;
59006;SDS011;44792;52.760;6.726;2022-12-29T06:49:33;4.93;;;1.50;;
59006;SDS011;44792;52.760;6.726;2022-12-29T06:51:59;4.63;;;1.50;;
59006;SDS011;44792;52.760;6.726;2022-12-29T06:54:25;6.97;;;1.40;;
59006;SDS011;44792;52.760;6.726;2022-12-29T06:56:51;4.40;;;1.73;;
59006;SDS011;44792;52.760;6.726;2022-12-29T06:59:17;9.02;;;2.03;;
59006;SDS011;44792;52.760;6.726;2022-12-29T07:01:42;7.00;;;1.42;;
59006;SDS011;44792;52.760;6.726;2022-12-29T07:04:08;7.22;;;1.85;;
59006;SDS011;44792;52.760;6.726;2022-12-29T07:06:33;6.88;;;2.03;;
59006;SDS011;44792;52.760;6.726;2022-12-29T07:08:59;5.03;;;1.73;;
59006;SDS011;44792;52.760;6.726;2022-12-29T07:11:24;12.02;;;1.98;;
59006;SDS011;44792;52.760;6.726;2022-12-29T07:13:50;9.13;;;3.13;;
59006;SDS011;44792;52.760;6.726;2022-12-29T07:16:16;9.48;;;2.25;;
59006;SDS011;44792;52.760;6.726;2022-12-29T07:18:42;8.48;;;1.77;;
59006;SDS011;44792;52.760;6.726;2022-12-29T07:21:07;8.07;;;2.03;;
59006;SDS011;44792;52.760;6.726;2022-12-29T07:23:33;6.95;;;1.77;;
59006;SDS011;44792;52.760;6.726;2022-12-29T07:26:03;3.92;;;1.90;;
59006;SDS011;44792;52.760;6.726;2022-12-29T07:28:31;5.82;;;2.00;;
59006;SDS011;44792;52.760;6.726;2022-12-29T07:30:57;4.70;;;1.83;;
59006;SDS011;44792;52.760;6.726;2022-12-29T07:33:23;10.73;;;2.13;;
59006;SDS011;44792;52.760;6.726;2022-12-29T07:35:49;4.82;;;1.77;;
59006;SDS011;44792;52.760;6.726;2022-12-29T07:38:15;8.40;;;1.80;;
59006;SDS011;44792;52.760;6.726;2022-12-29T07:40:42;13.00;;;2.80;;
59006;SDS011;44792;52.760;6.726;2022-12-29T07:43:07;7.50;;;2.55;;
59006;SDS011;44792;52.760;6.726;2022-12-29T07:45:33;7.20;;;2.22;;
59006;SDS011;44792;52.760;6.726;2022-12-29T07:47:59;7.43;;;1.73;;
59006;SDS011;44792;52.760;6.726;2022-12-29T07:50:24;6.38;;;2.05;;
59006;SDS011;44792;52.760;6.726;2022-12-29T07:52:50;5.65;;;1.90;;
59006;SDS011;44792;52.760;6.726;2022-12-29T07:55:15;6.88;;;2.17;;
59006;SDS011;44792;52.760;6.726;2022-12-29T07:57:42;6.72;;;1.83;;
59006;SDS011;44792;52.760;6.726;2022-12-29T08:00:07;4.25;;;1.55;;
59006;SDS011;44792;52.760;6.726;2022-12-29T08:02:34;5.38;;;1.70;;
59006;SDS011;44792;52.760;6.726;2022-12-29T08:05:00;9.57;;;1.98;;
59006;SDS011;44792;52.760;6.726;2022-12-29T08:07:26;8.02;;;2.10;;
59006;SDS011;44792;52.760;6.726;2022-12-29T08:09:52;8.38;;;2.20;;
59006;SDS011;44792;52.760;6.726;2022-12-29T08:12:17;4.93;;;2.05;;
59006;SDS011;44792;52.760;6.726;2022-12-29T08:14:43;4.78;;;2.15;;
59006;SDS011;44792;52.760;6.726;2022-12-29T08:17:09;7.10;;;1.67;;
59006;SDS011;44792;52.760;6.726;2022-12-29T08:19:35;8.38;;;1.83;;
59006;SDS011;44792;52.760;6.726;2022-12-29T08:22:01;9.93;;;2.15;;
59006;SDS011;44792;52.760;6.726;2022-12-29T08:24:26;5.45;;;1.67;;
59006;SDS011;44792;52.760;6.726;2022-12-29T08:26:52;9.07;;;2.03;;
59006;SDS011;44792;52.760;6.726;2022-12-29T08:29:18;8.07;;;2.20;;
59006;SDS011;44792;52.760;6.726;2022-12-29T08:31:44;4.70;;;1.60;;
59006;SDS011;44792;52.760;6.726;2022-12-29T08:34:10;8.63;;;2.40;;
59006;SDS011;44792;52.760;6.726;2022-12-29T08:36:35;11.38;;;2.50;;
59006;SDS011;44792;52.760;6.726;2022-12-29T08:39:01;8.18;;;1.88;;
59006;SDS011;44792;52.760;6.726;2022-12-29T08:41:27;9.80;;;2.60;;
59006;SDS011;44792;52.760;6.726;2022-12-29T08:43:52;7.63;;;1.73;;
59006;SDS011;44792;52.760;6.726;2022-12-29T08:46:18;4.47;;;1.73;;
59006;SDS011;44792;52.760;6.726;2022-12-29T08:48:44;5.72;;;1.92;;
59006;SDS011;44792;52.760;6.726;2022-12-29T08:51:10;5.60;;;1.80;;
59006;SDS011;44792;52.760;6.726;2022-12-29T08:53:36;6.90;;;1.95;;
59006;SDS011;44792;52.760;6.726;2022-12-29T08:56:01;3.00;;;1.40;;
59006;SDS011;44792;52.760;6.726;2022-12-29T08:58:27;3.78;;;1.90;;
59006;SDS011;44792;52.760;6.726;2022-12-29T09:00:54;7.80;;;2.20;;
59006;SDS011;44792;52.760;6.726;2022-12-29T09:03:20;5.45;;;1.70;;
59006;SDS011;44792;52.760;6.726;2022-12-29T09:05:50;3.72;;;1.58;;
59006;SDS011;44792;52.760;6.726;2022-12-29T09:08:17;6.70;;;1.55;;
59006;SDS011;44792;52.760;6.726;2022-12-29T09:10:43;7.13;;;2.42;;
59006;SDS011;44792;52.760;6.726;2022-12-29T09:13:09;5.95;;;1.50;;
59006;SDS011;44792;52.760;6.726;2022-12-29T09:15:35;2.88;;;1.73;;
59006;SDS011;44792;52.760;6.726;2022-12-29T09:18:00;6.88;;;1.80;;
59006;SDS011;44792;52.760;6.726;2022-12-29T09:20:26;4.28;;;1.85;;
59006;SDS011;44792;52.760;6.726;2022-12-29T09:22:52;4.35;;;1.45;;
59006;SDS011;44792;52.760;6.726;2022-12-29T09:25:17;8.10;;;2.17;;
59006;SDS011;44792;52.760;6.726;2022-12-29T09:27:43;13.43;;;1.77;;
59006;SDS011;44792;52.760;6.726;2022-12-29T09:30:09;6.60;;;2.10;;
59006;SDS011;44792;52.760;6.726;2022-12-29T09:32:37;5.60;;;1.80;;
59006;SDS011;44792;52.760;6.726;2022-12-29T09:35:03;6.18;;;1.98;;
59006;SDS011;44792;52.760;6.726;2022-12-29T09:37:29;5.68;;;2.38;;
59006;SDS011;44792;52.760;6.726;2022-12-29T09:39:54;6.93;;;1.80;;
59006;SDS011;44792;52.760;6.726;2022-12-29T09:47:35;5.90;;;2.33;;
59006;SDS011;44792;52.760;6.726;2022-12-29T09:50:03;9.57;;;2.10;;
59006;SDS011;44792;52.760;6.726;2022-12-29T09:52:35;10.95;;;2.22;;
59006;SDS011;44792;52.760;6.726;2022-12-29T09:57:36;5.47;;;2.42;;
59006;SDS011;44792;52.760;6.726;2022-12-29T10:00:16;8.00;;;2.05;;
59006;SDS011;44792;52.760;6.726;2022-12-29T10:02:44;5.05;;;1.80;;
59006;SDS011;44792;52.760;6.726;2022-12-29T10:08:03;7.13;;;1.90;;
59006;SDS011;44792;52.760;6.726;2022-12-29T10:13:24;7.18;;;2.00;;
59006;SDS011;44792;52.760;6.726;2022-12-29T10:16:05;4.95;;;1.50;;
59006;SDS011;44792;52.760;6.726;2022-12-29T10:21:39;9.20;;;2.17;;
59006;SDS011;44792;52.760;6.726;2022-12-29T10:24:16;6.30;;;2.40;;
59006;SDS011;44792;52.760;6.726;2022-12-29T10:26:44;7.28;;;2.00;;
59006;SDS011;44792;52.760;6.726;2022-12-29T10:29:13;8.90;;;1.75;;
59006;SDS011;44792;52.760;6.726;2022-12-29T10:31:58;13.50;;;2.33;;
59006;SDS011;44792;52.760;6.726;2022-12-29T10:34:27;8.00;;;1.95;;
59006;SDS011;44792;52.760;6.726;2022-12-29T10:36:57;5.68;;;1.88;;
59006;SDS011;44792;52.760;6.726;2022-12-29T10:39:53;8.80;;;2.50;;
59006;SDS011;44792;52.760;6.726;2022-12-29T10:44:55;4.15;;;2.03;;
59006;SDS011;44792;52.760;6.726;2022-12-29T10:47:23;8.93;;;2.35;;
59006;SDS011;44792;52.760;6.726;2022-12-29T10:49:51;5.22;;;1.80;;
59006;SDS011;44792;52.760;6.726;2022-12-29T10:52:18;12.43;;;2.50;;
59006;SDS011;44792;52.760;6.726;2022-12-29T10:57:29;8.30;;;2.63;;
59006;SDS011;44792;52.760;6.726;2022-12-29T10:59:56;7.90;;;2.20;;
59006;SDS011;44792;52.760;6.726;2022-12-29T11:05:23;4.50;;;1.65;;
59006;SDS011;44792;52.760;6.726;2022-12-29T11:07:59;6.32;;;2.05;;
59006;SDS011;44792;52.760;6.726;2022-12-29T11:13:03;4.93;;;1.70;;
59006;SDS011;44792;52.760;6.726;2022-12-29T11:15:38;7.28;;;1.85;;
59006;SDS011;44792;52.760;6.726;2022-12-29T11:20:46;7.05;;;2.00;;
59006;SDS011;44792;52.760;6.726;2022-12-29T11:26:07;6.68;;;1.58;;
59006;SDS011;44792;52.760;6.726;2022-12-29T11:31:50;4.57;;;1.98;;
59006;SDS011;44792;52.760;6.726;2022-12-29T11:34:34;10.07;;;1.95;;
59006;SDS011;44792;52.760;6.726;2022-12-29T11:37:02;7.47;;;1.88;;
59006;SDS011;44792;52.760;6.726;2022-12-29T11:39:46;4.40;;;1.80;;
59006;SDS011;44792;52.760;6.726;2022-12-29T11:43:04;8.05;;;2.08;;
59006;SDS011;44792;52.760;6.726;2022-12-29T11:45:16;7.93;;;2.60;;
59006;SDS011;44792;52.760;6.726;2022-12-29T11:47:45;3.47;;;1.95;;
59006;SDS011;44792;52.760;6.726;2022-12-29T11:50:17;10.23;;;2.65;;
59006;SDS011;44792;52.760;6.726;2022-12-29T11:52:46;6.60;;;2.85;;
59006;SDS011;44792;52.760;6.726;2022-12-29T11:55:19;5.60;;;2.30;;
59006;SDS011;44792;52.760;6.726;2022-12-29T11:57:47;10.90;;;2.20;;
59006;SDS011;44792;52.760;6.726;2022-12-29T12:00:16;10.38;;;2.08;;
59006;SDS011;44792;52.760;6.726;2022-12-29T12:05:20;5.93;;;2.55;;
59006;SDS011;44792;52.760;6.726;2022-12-29T12:08:37;9.85;;;2.65;;
59006;SDS011;44792;52.760;6.726;2022-12-29T12:11:26;10.57;;;2.33;;
59006;SDS011;44792;52.760;6.726;2022-12-29T12:16:12;14.18;;;2.50;;
59006;SDS011;44792;52.760;6.726;2022-12-29T12:21:23;13.18;;;2.67;;
59006;SDS011;44792;52.760;6.726;2022-12-29T12:29:52;19.90;;;2.95;;
59006;SDS011;44792;52.760;6.726;2022-12-29T12:32:39;18.40;;;3.38;;
59006;SDS011;44792;52.760;6.726;2022-12-29T12:35:15;9.63;;;2.30;;
59006;SDS011;44792;52.760;6.726;2022-12-29T12:40:27;16.60;;;2.67;;
59006;SDS011;44792;52.760;6.726;2022-12-29T12:48:22;5.90;;;2.30;;
59006;SDS011;44792;52.760;6.726;2022-12-29T13:01:35;29.88;;;4.82;;
59006;SDS011;44792;52.760;6.726;2022-12-29T13:15:20;18.02;;;3.38;;
59006;SDS011;44792;52.760;6.726;2022-12-29T13:36:48;5.80;;;2.22;;
59006;SDS011;44792;52.760;6.726;2022-12-29T13:39:35;7.75;;;2.45;;
59006;SDS011;44792;52.760;6.726;2022-12-29T13:42:06;9.45;;;2.63;;
59006;SDS011;44792;52.760;6.726;2022-12-29T13:44:37;14.40;;;2.50;;
59006;SDS011;44792;52.760;6.726;2022-12-29T13:48:10;9.60;;;2.55;;
59006;SDS011;44792;52.760;6.726;2022-12-29T13:50:16;7.25;;;2.30;;
59006;SDS011;44792;52.760;6.726;2022-12-29T13:52:49;8.68;;;2.38;;
59006;SDS011;44792;52.760;6.726;2022-12-29T13:55:41;12.88;;;3.38;;
59006;SDS011;44792;52.760;6.726;2022-12-29T13:58:13;21.08;;;4.05;;
59006;SDS011;44792;52.760;6.726;2022-12-29T14:01:12;19.23;;;4.10;;
59006;SDS011;44792;52.760;6.726;2022-12-29T14:03:58;16.00;;;3.25;;
59006;SDS011;44792;52.760;6.726;2022-12-29T14:06:31;12.73;;;2.28;;
59006;SDS011;44792;52.760;6.726;2022-12-29T14:14:14;12.07;;;2.70;;
59006;SDS011;44792;52.760;6.726;2022-12-29T14:16:48;10.73;;;4.00;;
59006;SDS011;44792;52.760;6.726;2022-12-29T14:21:53;13.73;;;3.13;;
59006;SDS011;44792;52.760;6.726;2022-12-29T14:24:38;8.40;;;2.30;;
59006;SDS011;44792;52.760;6.726;2022-12-29T14:34:46;13.98;;;3.50;;
59006;SDS011;44792;52.760;6.726;2022-12-29T14:37:23;14.68;;;2.42;;
59006;SDS011;44792;52.760;6.726;2022-12-29T14:40:05;10.80;;;2.75;;
59006;SDS011;44792;52.760;6.726;2022-12-29T14:42:42;8.90;;;2.40;;
59006;SDS011;44792;52.760;6.726;2022-12-29T14:47:44;5.40;;;2.22;;
59006;SDS011;44792;52.760;6.726;2022-12-29T14:50:13;8.93;;;2.73;;
59006;SDS011;44792;52.760;6.726;2022-12-29T14:55:30;8.60;;;2.30;;
59006;SDS011;44792;52.760;6.726;2022-12-29T14:58:27;7.60;;;2.00;;
59006;SDS011;44792;52.760;6.726;2022-12-29T15:00:55;8.50;;;2.13;;
59006;SDS011;44792;52.760;6.726;2022-12-29T15:03:28;10.02;;;2.38;;
59006;SDS011;44792;52.760;6.726;2022-12-29T15:08:32;12.68;;;2.50;;
59006;SDS011;44792;52.760;6.726;2022-12-29T15:13:40;10.95;;;2.47;;
59006;SDS011;44792;52.760;6.726;2022-12-29T15:16:24;12.75;;;2.58;;
59006;SDS011;44792;52.760;6.726;2022-12-29T15:18:54;7.20;;;1.88;;
59006;SDS011;44792;52.760;6.726;2022-12-29T15:21:23;10.05;;;2.38;;
59006;SDS011;44792;52.760;6.726;2022-12-29T15:23:54;6.25;;;2.00;;
59006;SDS011;44792;52.760;6.726;2022-12-29T15:26:20;10.50;;;2.67;;
59006;SDS011;44792;52.760;6.726;2022-12-29T15:28:48;10.85;;;2.50;;
59006;SDS011;44792;52.760;6.726;2022-12-29T15:31:22;13.15;;;2.92;;
59006;SDS011;44792;52.760;6.726;2022-12-29T15:33:50;7.57;;;2.72;;
59006;SDS011;44792;52.760;6.726;2022-12-29T15:36:21;9.73;;;2.80;;
59006;SDS011;44792;52.760;6.726;2022-12-29T15:38:51;10.88;;;3.03;;
59006;SDS011;44792;52.760;6.726;2022-12-29T15:44:25;16.67;;;3.65;;
59006;SDS011;44792;52.760;6.726;2022-12-29T15:46:57;8.20;;;2.63;;
59006;SDS011;44792;52.760;6.726;2022-12-29T15:49:27;9.88;;;2.67;;
59006;SDS011;44792;52.760;6.726;2022-12-29T15:51:52;7.80;;;3.28;;
59006;SDS011;44792;52.760;6.726;2022-12-29T15:54:19;7.93;;;2.95;;
59006;SDS011;44792;52.760;6.726;2022-12-29T15:56:47;16.30;;;4.10;;
59006;SDS011;44792;52.760;6.726;2022-12-29T15:59:28;10.27;;;3.45;;
59006;SDS011;44792;52.760;6.726;2022-12-29T16:01:55;10.77;;;3.10;;
59006;SDS011;44792;52.760;6.726;2022-12-29T16:04:21;9.70;;;2.38;;
59006;SDS011;44792;52.760;6.726;2022-12-29T16:06:59;12.70;;;3.10;;
59006;SDS011;44792;52.760;6.726;2022-12-29T16:09:33;8.00;;;2.20;;
59006;SDS011;44792;52.760;6.726;2022-12-29T16:12:13;8.52;;;2.15;;
59006;SDS011;44792;52.760;6.726;2022-12-29T16:14:53;6.78;;;2.30;;
59006;SDS011;44792;52.760;6.726;2022-12-29T16:17:23;9.38;;;2.40;;
59006;SDS011;44792;52.760;6.726;2022-12-29T16:19:56;8.95;;;2.30;;
59006;SDS011;44792;52.760;6.726;2022-12-29T16:22:31;8.05;;;2.88;;
59006;SDS011;44792;52.760;6.726;2022-12-29T16:25:00;3.87;;;2.10;;
59006;SDS011;44792;52.760;6.726;2022-12-29T16:27:32;4.05;;;2.45;;
59006;SDS011;44792;52.760;6.726;2022-12-29T16:30:03;7.70;;;2.78;;
59006;SDS011;44792;52.760;6.726;2022-12-29T16:32:31;7.25;;;2.67;;
59006;SDS011;44792;52.760;6.726;2022-12-29T16:35:18;4.60;;;2.65;;
59006;SDS011;44792;52.760;6.726;2022-12-29T16:41:02;5.90;;;2.40;;
59006;SDS011;44792;52.760;6.726;2022-12-29T16:43:29;7.80;;;2.38;;
59006;SDS011;44792;52.760;6.726;2022-12-29T16:49:08;4.57;;;2.70;;
59006;SDS011;44792;52.760;6.726;2022-12-29T16:51:15;6.45;;;2.80;;
59006;SDS011;44792;52.760;6.726;2022-12-29T16:53:51;3.75;;;2.42;;
59006;SDS011;44792;52.760;6.726;2022-12-29T16:56:19;8.55;;;2.65;;
59006;SDS011;44792;52.760;6.726;2022-12-29T16:58:49;6.78;;;3.10;;
59006;SDS011;44792;52.760;6.726;2022-12-29T17:01:19;8.95;;;3.33;;
59006;SDS011;44792;52.760;6.726;2022-12-29T17:03:53;5.35;;;2.10;;
59006;SDS011;44792;52.760;6.726;2022-12-29T17:06:22;3.13;;;2.30;;
59006;SDS011;44792;52.760;6.726;2022-12-29T17:08:47;5.63;;;2.22;;
59006;SDS011;44792;52.760;6.726;2022-12-29T17:11:19;5.05;;;2.30;;
59006;SDS011;44792;52.760;6.726;2022-12-29T17:16:46;7.55;;;2.38;;
59006;SDS011;44792;52.760;6.726;2022-12-29T17:19:16;9.23;;;5.10;;
59006;SDS011;44792;52.760;6.726;2022-12-29T17:21:43;6.45;;;4.70;;
59006;SDS011;44792;52.760;6.726;2022-12-29T17:24:14;6.75;;;3.03;;
59006;SDS011;44792;52.760;6.726;2022-12-29T17:26:42;8.25;;;3.78;;
59006;SDS011;44792;52.760;6.726;2022-12-29T17:29:45;7.35;;;3.10;;
59006;SDS011;44792;52.760;6.726;2022-12-29T17:32:06;4.55;;;3.17;;
59006;SDS011;44792;52.760;6.726;2022-12-29T17:34:35;10.52;;;3.50;;
59006;SDS011;44792;52.760;6.726;2022-12-29T17:37:00;10.85;;;3.40;;
59006;SDS011;44792;52.760;6.726;2022-12-29T17:39:26;8.18;;;3.35;;
59006;SDS011;44792;52.760;6.726;2022-12-29T17:41:52;7.55;;;3.65;;
59006;SDS011;44792;52.760;6.726;2022-12-29T17:44:19;8.77;;;3.65;;
59006;SDS011;44792;52.760;6.726;2022-12-29T17:46:45;9.10;;;3.60;;
59006;SDS011;44792;52.760;6.726;2022-12-29T17:49:12;7.00;;;4.15;;